sensor_id;sensor_type;location;lat;lon;timestamp;pressure;altitude;pressure_sealevel;temperature;humidity
50226;BME280;36113;50.742;6.432;2023-06-10T00:02:16;98572.63;;;18.30;54.74
50226;BME280;36113;50.742;6.432;2023-06-10T00:04:42;98540.00;;;18.11;54.81
50226;BME280;36113;50.742;6.432;2023-06-10T00:07:07;98587.16;;;18.39;54.47
50226;BME280;36113;50.742;6.432;2023-06-10T00:09:37;98576.16;;;18.39;54.34
50226;BME280;36113;50.742;6.432;2023-06-10T00:12:06;98555.50;;;18.25;54.54
50226;BME280;36113;50.742;6.432;2023-06-10T00:14:32;98514.00;;;18.00;54.56
50226;BME280;36113;50.742;6.432;2023-06-10T00:16:58;98555.66;;;18.19;54.56
50226;BME280;36113;50.742;6.432;2023-06-10T00:19:24;98578.31;;;18.34;55.34
50226;BME280;36113;50.742;6.432;2023-06-10T00:21:55;98554.41;;;18.08;55.36
50226;BME280;36113;50.742;6.432;2023-06-10T00:24:21;98589.50;;;18.20;55.73
50226;BME280;36113;50.742;6.432;2023-06-10T00:26:47;98553.47;;;17.95;55.61
50226;BME280;36113;50.742;6.432;2023-06-10T00:29:12;98573.84;;;18.03;56.06
50226;BME280;36113;50.742;6.432;2023-06-10T00:31:38;98590.66;;;18.02;56.34
50226;BME280;36113;50.742;6.432;2023-06-10T00:34:04;98543.13;;;17.66;56.27
50226;BME280;36113;50.742;6.432;2023-06-10T00:36:29;98575.81;;;17.85;56.47
50226;BME280;36113;50.742;6.432;2023-06-10T00:38:55;98573.88;;;17.86;56.99
50226;BME280;36113;50.742;6.432;2023-06-10T00:41:21;98590.38;;;17.86;56.86
50226;BME280;36113;50.742;6.432;2023-06-10T00:43:46;98587.63;;;17.86;56.76
50226;BME280;36113;50.742;6.432;2023-06-10T00:46:12;98588.28;;;17.91;56.94
50226;BME280;36113;50.742;6.432;2023-06-10T00:48:39;98550.25;;;17.67;56.63
50226;BME280;36113;50.742;6.432;2023-06-10T00:51:05;98589.22;;;17.95;56.35
50226;BME280;36113;50.742;6.432;2023-06-10T00:53:31;98586.63;;;17.99;56.42
50226;BME280;36113;50.742;6.432;2023-06-10T00:55:58;98573.69;;;17.91;56.69
50226;BME280;36113;50.742;6.432;2023-06-10T00:58:24;98592.31;;;17.94;56.71
50226;BME280;36113;50.742;6.432;2023-06-10T01:00:50;98595.19;;;17.89;56.77
50226;BME280;36113;50.742;6.432;2023-06-10T01:03:16;98594.56;;;17.83;57.10
50226;BME280;36113;50.742;6.432;2023-06-10T01:05:42;98581.59;;;17.66;58.01
50226;BME280;36113;50.742;6.432;2023-06-10T01:08:33;98584.84;;;17.68;57.92
50226;BME280;36113;50.742;6.432;2023-06-10T01:11:01;98561.56;;;17.48;58.28
50226;BME280;36113;50.742;6.432;2023-06-10T01:13:29;98571.59;;;17.53;57.91
50226;BME280;36113;50.742;6.432;2023-06-10T01:15:57;98583.41;;;17.53;58.40
50226;BME280;36113;50.742;6.432;2023-06-10T01:18:22;98572.72;;;17.43;58.54
50226;BME280;36113;50.742;6.432;2023-06-10T01:20:48;98557.81;;;17.27;58.90
50226;BME280;36113;50.742;6.432;2023-06-10T01:23:14;98545.88;;;17.14;59.07
50226;BME280;36113;50.742;6.432;2023-06-10T01:25:43;98593.56;;;17.35;58.92
50226;BME280;36113;50.742;6.432;2023-06-10T01:28:27;98575.78;;;17.33;59.12
50226;BME280;36113;50.742;6.432;2023-06-10T01:33:46;98585.81;;;17.37;58.95
50226;BME280;36113;50.742;6.432;2023-06-10T01:36:13;98539.91;;;17.12;58.69
50226;BME280;36113;50.742;6.432;2023-06-10T01:38:43;98574.81;;;17.37;58.64
50226;BME280;36113;50.742;6.432;2023-06-10T01:41:10;98539.25;;;17.15;58.48
50226;BME280;36113;50.742;6.432;2023-06-10T01:43:37;98553.16;;;17.27;58.03
50226;BME280;36113;50.742;6.432;2023-06-10T01:46:03;98552.19;;;17.41;57.71
50226;BME280;36113;50.742;6.432;2023-06-10T01:48:29;98544.09;;;17.44;57.08
50226;BME280;36113;50.742;6.432;2023-06-10T01:50:54;98582.44;;;17.67;57.53
50226;BME280;36113;50.742;6.432;2023-06-10T01:53:21;98580.63;;;17.62;57.60
50226;BME280;36113;50.742;6.432;2023-06-10T01:55:46;98518.41;;;17.14;57.65
50226;BME280;36113;50.742;6.432;2023-06-10T01:58:11;98572.41;;;17.53;57.81
50226;BME280;36113;50.742;6.432;2023-06-10T02:00:37;98535.72;;;17.23;57.72
50226;BME280;36113;50.742;6.432;2023-06-10T02:03:02;98499.31;;;17.00;58.09
50226;BME280;36113;50.742;6.432;2023-06-10T02:05:27;98553.97;;;17.28;58.32
50226;BME280;36113;50.742;6.432;2023-06-10T02:07:52;98597.78;;;17.50;58.23
50226;BME280;36113;50.742;6.432;2023-06-10T02:10:18;98574.81;;;17.37;58.62
50226;BME280;36113;50.742;6.432;2023-06-10T02:12:43;98559.75;;;17.17;58.77
50226;BME280;36113;50.742;6.432;2023-06-10T02:15:08;98566.88;;;17.19;58.85
50226;BME280;36113;50.742;6.432;2023-06-10T02:17:34;98606.19;;;17.36;59.04
50226;BME280;36113;50.742;6.432;2023-06-10T02:19:59;98596.31;;;17.35;58.81
50226;BME280;36113;50.742;6.432;2023-06-10T02:22:29;98589.38;;;17.29;58.75
50226;BME280;36113;50.742;6.432;2023-06-10T02:24:54;98602.63;;;17.36;58.58
50226;BME280;36113;50.742;6.432;2023-06-10T02:27:20;98579.66;;;17.23;58.46
50226;BME280;36113;50.742;6.432;2023-06-10T02:29:45;98596.31;;;17.35;58.61
50226;BME280;36113;50.742;6.432;2023-06-10T02:32:10;98562.00;;;17.15;58.25
50226;BME280;36113;50.742;6.432;2023-06-10T02:34:36;98589.03;;;17.40;58.24
50226;BME280;36113;50.742;6.432;2023-06-10T02:37:01;98551.22;;;17.19;58.35
50226;BME280;36113;50.742;6.432;2023-06-10T02:39:27;98588.22;;;17.39;57.71
50226;BME280;36113;50.742;6.432;2023-06-10T02:41:53;98596.50;;;17.48;57.91
50226;BME280;36113;50.742;6.432;2023-06-10T02:44:18;98559.94;;;17.30;57.45
50226;BME280;36113;50.742;6.432;2023-06-10T02:46:44;98555.56;;;17.29;57.80
50226;BME280;36113;50.742;6.432;2023-06-10T02:49:09;98583.06;;;17.55;57.21
50226;BME280;36113;50.742;6.432;2023-06-10T02:51:35;98596.19;;;17.58;57.45
50226;BME280;36113;50.742;6.432;2023-06-10T02:54:01;98582.56;;;17.53;56.71
50226;BME280;36113;50.742;6.432;2023-06-10T02:56:26;98526.19;;;17.21;56.59
50226;BME280;36113;50.742;6.432;2023-06-10T02:58:52;98601.34;;;17.59;56.69
50226;BME280;36113;50.742;6.432;2023-06-10T03:01:17;98588.72;;;17.58;56.75
50226;BME280;36113;50.742;6.432;2023-06-10T03:03:44;98551.41;;;17.31;56.71
50226;BME280;36113;50.742;6.432;2023-06-10T03:06:12;98596.31;;;17.62;56.55
50226;BME280;36113;50.742;6.432;2023-06-10T03:08:39;98598.44;;;17.65;56.31
50226;BME280;36113;50.742;6.432;2023-06-10T03:11:04;98597.63;;;17.64;56.20
50226;BME280;36113;50.742;6.432;2023-06-10T03:13:30;98593.25;;;17.54;56.55
50226;BME280;36113;50.742;6.432;2023-06-10T03:15:55;98558.66;;;17.36;56.54
50226;BME280;36113;50.742;6.432;2023-06-10T03:18:25;98593.56;;;17.53;56.83
50226;BME280;36113;50.742;6.432;2023-06-10T03:20:51;98560.44;;;17.32;56.87
50226;BME280;36113;50.742;6.432;2023-06-10T03:23:17;98593.09;;;17.51;56.55
50226;BME280;36113;50.742;6.432;2023-06-10T03:25:43;98598.44;;;17.56;56.55
50226;BME280;36113;50.742;6.432;2023-06-10T03:28:08;98597.94;;;17.54;56.26
50226;BME280;36113;50.742;6.432;2023-06-10T03:30:34;98603.75;;;17.52;56.32
50226;BME280;36113;50.742;6.432;2023-06-10T03:32:59;98613.16;;;17.51;56.69
50226;BME280;36113;50.742;6.432;2023-06-10T03:35:26;98602.94;;;17.43;56.89
50226;BME280;36113;50.742;6.432;2023-06-10T03:37:51;98602.94;;;17.43;56.88
50226;BME280;36113;50.742;6.432;2023-06-10T03:40:17;98613.63;;;17.45;57.28
50226;BME280;36113;50.742;6.432;2023-06-10T03:42:42;98611.19;;;17.43;57.25
50226;BME280;36113;50.742;6.432;2023-06-10T03:45:09;98618.47;;;17.48;56.71
50226;BME280;36113;50.742;6.432;2023-06-10T03:47:36;98611.34;;;17.47;57.10
50226;BME280;36113;50.742;6.432;2023-06-10T03:50:02;98615.56;;;17.53;56.55
50226;BME280;36113;50.742;6.432;2023-06-10T03:52:28;98608.94;;;17.63;56.09
50226;BME280;36113;50.742;6.432;2023-06-10T03:54:54;98607.50;;;17.65;56.00
50226;BME280;36113;50.742;6.432;2023-06-10T03:57:19;98581.78;;;17.52;55.93
50226;BME280;36113;50.742;6.432;2023-06-10T03:59:44;98605.22;;;17.76;55.31
50226;BME280;36113;50.742;6.432;2023-06-10T04:02:10;98611.38;;;17.82;55.46
50226;BME280;36113;50.742;6.432;2023-06-10T04:04:35;98613.34;;;17.90;54.98
50226;BME280;36113;50.742;6.432;2023-06-10T04:07:03;98608.16;;;17.97;54.87
50226;BME280;36113;50.742;6.432;2023-06-10T04:09:28;98571.75;;;17.74;54.79
50226;BME280;36113;50.742;6.432;2023-06-10T04:11:59;98613.63;;;18.06;54.51
50226;BME280;36113;50.742;6.432;2023-06-10T04:14:25;98607.81;;;18.07;54.33
50226;BME280;36113;50.742;6.432;2023-06-10T04:16:51;98598.28;;;18.05;54.07
50226;BME280;36113;50.742;6.432;2023-06-10T04:19:16;98614.91;;;18.17;53.89
50226;BME280;36113;50.742;6.432;2023-06-10T04:21:42;98580.00;;;18.00;54.04
50226;BME280;36113;50.742;6.432;2023-06-10T04:24:07;98627.19;;;18.28;54.31
50226;BME280;36113;50.742;6.432;2023-06-10T04:26:37;98627.84;;;18.25;54.53
50226;BME280;36113;50.742;6.432;2023-06-10T04:29:02;98629.63;;;18.30;54.57
50226;BME280;36113;50.742;6.432;2023-06-10T04:31:27;98628.97;;;18.24;54.80
50226;BME280;36113;50.742;6.432;2023-06-10T04:33:53;98626.69;;;18.26;55.00
50226;BME280;36113;50.742;6.432;2023-06-10T04:36:18;98598.59;;;18.12;54.90
50226;BME280;36113;50.742;6.432;2023-06-10T04:38:44;98622.94;;;18.39;54.39
50226;BME280;36113;50.742;6.432;2023-06-10T04:41:09;98627.31;;;18.49;54.46
50226;BME280;36113;50.742;6.432;2023-06-10T04:43:35;98628.09;;;18.50;54.56
50226;BME280;36113;50.742;6.432;2023-06-10T04:46:00;98635.69;;;18.61;53.90
50226;BME280;36113;50.742;6.432;2023-06-10T04:48:26;98631.94;;;18.66;54.60
50226;BME280;36113;50.742;6.432;2023-06-10T04:50:54;98590.09;;;18.43;54.94
50226;BME280;36113;50.742;6.432;2023-06-10T04:53:21;98629.66;;;18.68;55.53
50226;BME280;36113;50.742;6.432;2023-06-10T04:55:46;98615.56;;;18.70;55.45
50226;BME280;36113;50.742;6.432;2023-06-10T04:58:13;98632.66;;;18.93;54.44
50226;BME280;36113;50.742;6.432;2023-06-10T05:00:38;98616.44;;;19.00;53.01
50226;BME280;36113;50.742;6.432;2023-06-10T05:03:03;98624.41;;;19.22;53.03
50226;BME280;36113;50.742;6.432;2023-06-10T05:05:29;98629.84;;;19.40;51.95
50226;BME280;36113;50.742;6.432;2023-06-10T05:07:54;98613.22;;;19.49;51.72
50226;BME280;36113;50.742;6.432;2023-06-10T05:10:19;98628.16;;;19.69;51.40
50226;BME280;36113;50.742;6.432;2023-06-10T05:12:45;98613.19;;;19.78;51.31
50226;BME280;36113;50.742;6.432;2023-06-10T05:15:10;98617.06;;;19.98;51.17
50226;BME280;36113;50.742;6.432;2023-06-10T05:17:36;98622.66;;;20.11;51.01
50226;BME280;36113;50.742;6.432;2023-06-10T05:23:02;98595.53;;;20.25;50.26
50226;BME280;36113;50.742;6.432;2023-06-10T05:25:30;98613.97;;;20.45;49.92
50226;BME280;36113;50.742;6.432;2023-06-10T05:27:55;98619.56;;;20.58;50.67
50226;BME280;36113;50.742;6.432;2023-06-10T05:30:21;98627.31;;;20.77;50.42
50226;BME280;36113;50.742;6.432;2023-06-10T05:32:48;98627.78;;;20.91;49.17
50226;BME280;36113;50.742;6.432;2023-06-10T05:35:13;98597.16;;;20.84;49.62
50226;BME280;36113;50.742;6.432;2023-06-10T05:37:39;98637.47;;;21.22;50.86
50226;BME280;36113;50.742;6.432;2023-06-10T05:40:05;98552.38;;;20.78;51.63
50226;BME280;36113;50.742;6.432;2023-06-10T05:42:30;98628.25;;;21.42;51.29
50226;BME280;36113;50.742;6.432;2023-06-10T05:44:56;98639.97;;;21.64;50.88
50226;BME280;36113;50.742;6.432;2023-06-10T05:47:21;98636.34;;;21.76;50.29
50226;BME280;36113;50.742;6.432;2023-06-10T05:49:46;98607.56;;;21.64;49.19
50226;BME280;36113;50.742;6.432;2023-06-10T05:52:13;98612.81;;;21.82;47.66
50226;BME280;36113;50.742;6.432;2023-06-10T05:54:38;98632.69;;;22.00;47.12
50226;BME280;36113;50.742;6.432;2023-06-10T05:57:04;98609.31;;;21.97;47.28
50226;BME280;36113;50.742;6.432;2023-06-10T05:59:30;98635.69;;;22.35;46.50
50226;BME280;36113;50.742;6.432;2023-06-10T06:01:55;98602.75;;;22.18;46.01
50226;BME280;36113;50.742;6.432;2023-06-10T06:04:21;98636.50;;;22.51;46.41
50226;BME280;36113;50.742;6.432;2023-06-10T06:06:46;98652.34;;;22.67;45.86
50226;BME280;36113;50.742;6.432;2023-06-10T06:09:11;98646.63;;;22.76;45.81
50226;BME280;36113;50.742;6.432;2023-06-10T06:11:37;98612.06;;;22.69;45.56
50226;BME280;36113;50.742;6.432;2023-06-10T06:14:03;98610.72;;;22.79;45.23
50226;BME280;36113;50.742;6.432;2023-06-10T06:16:28;98569.69;;;22.53;45.08
50226;BME280;36113;50.742;6.432;2023-06-10T06:18:53;98642.38;;;23.10;44.52
50226;BME280;36113;50.742;6.432;2023-06-10T06:21:18;98643.00;;;23.19;44.38
50226;BME280;36113;50.742;6.432;2023-06-10T06:23:44;98634.97;;;23.14;43.32
50226;BME280;36113;50.742;6.432;2023-06-10T06:26:09;98648.34;;;23.28;43.12
50226;BME280;36113;50.742;6.432;2023-06-10T06:28:35;98628.44;;;23.06;41.81
50226;BME280;36113;50.742;6.432;2023-06-10T06:31:00;98661.22;;;23.36;43.16
50226;BME280;36113;50.742;6.432;2023-06-10T06:33:26;98666.53;;;23.25;42.83
50226;BME280;36113;50.742;6.432;2023-06-10T06:35:51;98668.38;;;23.37;43.33
50226;BME280;36113;50.742;6.432;2023-06-10T06:38:17;98606.34;;;23.10;43.23
50226;BME280;36113;50.742;6.432;2023-06-10T06:40:42;98668.38;;;23.37;42.65
50226;BME280;36113;50.742;6.432;2023-06-10T06:43:07;98657.63;;;23.35;43.16
50226;BME280;36113;50.742;6.432;2023-06-10T06:45:33;98650.34;;;23.27;44.31
50226;BME280;36113;50.742;6.432;2023-06-10T06:47:59;98653.81;;;23.40;45.54
50226;BME280;36113;50.742;6.432;2023-06-10T06:50:24;98679.63;;;23.44;45.14
50226;BME280;36113;50.742;6.432;2023-06-10T06:52:50;98650.59;;;22.90;44.61
50226;BME280;36113;50.742;6.432;2023-06-10T06:55:15;98672.13;;;23.29;45.03
50226;BME280;36113;50.742;6.432;2023-06-10T06:57:40;98677.50;;;23.53;43.28
50226;BME280;36113;50.742;6.432;2023-06-10T07:00:06;98677.22;;;23.59;42.78
50226;BME280;36113;50.742;6.432;2023-06-10T07:02:33;98666.50;;;23.41;43.32
50226;BME280;36113;50.742;6.432;2023-06-10T07:04:58;98681.66;;;23.63;43.01
50226;BME280;36113;50.742;6.432;2023-06-10T07:07:24;98635.88;;;23.53;42.29
50226;BME280;36113;50.742;6.432;2023-06-10T07:09:50;98658.78;;;23.50;42.34
50226;BME280;36113;50.742;6.432;2023-06-10T07:12:15;98682.44;;;23.80;43.60
50226;BME280;36113;50.742;6.432;2023-06-10T07:14:40;98685.09;;;23.57;43.21
50226;BME280;36113;50.742;6.432;2023-06-10T07:17:06;98685.84;;;23.73;43.60
50226;BME280;36113;50.742;6.432;2023-06-10T07:19:31;98648.78;;;23.46;43.29
50226;BME280;36113;50.742;6.432;2023-06-10T07:21:56;98642.06;;;23.47;43.75
50226;BME280;36113;50.742;6.432;2023-06-10T07:24:22;98612.63;;;23.42;43.08
50226;BME280;36113;50.742;6.432;2023-06-10T07:26:47;98686.81;;;23.45;44.22
50226;BME280;36113;50.742;6.432;2023-06-10T07:29:12;98673.19;;;23.56;44.33
50226;BME280;36113;50.742;6.432;2023-06-10T07:31:38;98682.19;;;23.85;42.63
50226;BME280;36113;50.742;6.432;2023-06-10T07:34:03;98686.50;;;24.21;42.92
50226;BME280;36113;50.742;6.432;2023-06-10T07:36:29;98670.72;;;24.45;43.78
50226;BME280;36113;50.742;6.432;2023-06-10T07:38:54;98672.88;;;24.74;43.65
50226;BME280;36113;50.742;6.432;2023-06-10T07:41:20;98681.03;;;24.87;41.21
50226;BME280;36113;50.742;6.432;2023-06-10T07:43:45;98681.09;;;24.67;40.27
50226;BME280;36113;50.742;6.432;2023-06-10T07:46:11;98686.88;;;24.58;40.83
50226;BME280;36113;50.742;6.432;2023-06-10T07:48:36;98669.47;;;24.42;41.54
50226;BME280;36113;50.742;6.432;2023-06-10T07:51:01;98654.50;;;24.08;41.48
50226;BME280;36113;50.742;6.432;2023-06-10T07:53:27;98673.75;;;24.40;41.32
50226;BME280;36113;50.742;6.432;2023-06-10T07:55:53;98658.91;;;24.71;41.80
50226;BME280;36113;50.742;6.432;2023-06-10T07:58:18;98661.13;;;24.85;41.42
50226;BME280;36113;50.742;6.432;2023-06-10T08:00:44;98665.88;;;25.07;41.05
50226;BME280;36113;50.742;6.432;2023-06-10T08:03:09;98648.03;;;24.62;39.63
50226;BME280;36113;50.742;6.432;2023-06-10T08:05:34;98660.56;;;24.13;41.30
50226;BME280;36113;50.742;6.432;2023-06-10T08:08:00;98660.19;;;24.54;40.80
50226;BME280;36113;50.742;6.432;2023-06-10T08:10:25;98680.72;;;24.69;40.19
50226;BME280;36113;50.742;6.432;2023-06-10T08:12:50;98676.63;;;24.04;41.51
50226;BME280;36113;50.742;6.432;2023-06-10T08:15:16;98639.16;;;24.14;41.18
50226;BME280;36113;50.742;6.432;2023-06-10T08:17:41;98675.66;;;24.74;40.98
50226;BME280;36113;50.742;6.432;2023-06-10T08:20:06;98674.84;;;24.97;40.11
50226;BME280;36113;50.742;6.432;2023-06-10T08:22:32;98670.09;;;25.21;40.90
50226;BME280;36113;50.742;6.432;2023-06-10T08:24:58;98685.22;;;25.46;40.02
50226;BME280;36113;50.742;6.432;2023-06-10T08:27:24;98623.69;;;24.78;39.42
50226;BME280;36113;50.742;6.432;2023-06-10T08:29:50;98666.25;;;24.83;41.37
50226;BME280;36113;50.742;6.432;2023-06-10T08:32:15;98681.31;;;24.39;40.97
50226;BME280;36113;50.742;6.432;2023-06-10T08:34:41;98687.81;;;24.27;42.26
50226;BME280;36113;50.742;6.432;2023-06-10T08:37:07;98654.66;;;23.95;42.32
50226;BME280;36113;50.742;6.432;2023-06-10T08:39:32;98685.13;;;24.11;42.88
50226;BME280;36113;50.742;6.432;2023-06-10T08:44:29;98672.19;;;24.81;40.48
50226;BME280;36113;50.742;6.432;2023-06-10T08:47:00;98685.53;;;24.95;41.49
50226;BME280;36113;50.742;6.432;2023-06-10T08:49:26;98686.72;;;25.40;41.77
50226;BME280;36113;50.742;6.432;2023-06-10T08:51:56;98655.84;;;25.49;41.13
50226;BME280;36113;50.742;6.432;2023-06-10T08:54:25;98693.44;;;25.92;40.10
50226;BME280;36113;50.742;6.432;2023-06-10T08:56:53;98690.03;;;26.02;40.44
50226;BME280;36113;50.742;6.432;2023-06-10T08:59:20;98691.56;;;26.30;39.42
50226;BME280;36113;50.742;6.432;2023-06-10T09:01:47;98654.31;;;26.12;39.88
50226;BME280;36113;50.742;6.432;2023-06-10T09:04:12;98703.00;;;26.21;39.30
50226;BME280;36113;50.742;6.432;2023-06-10T09:06:38;98700.09;;;26.11;39.31
50226;BME280;36113;50.742;6.432;2023-06-10T09:09:05;98702.16;;;26.17;39.79
50226;BME280;36113;50.742;6.432;2023-06-10T09:11:31;98703.44;;;26.24;39.92
50226;BME280;36113;50.742;6.432;2023-06-10T09:13:57;98694.41;;;26.04;39.65
50226;BME280;36113;50.742;6.432;2023-06-10T09:16:24;98695.72;;;26.13;39.75
50226;BME280;36113;50.742;6.432;2023-06-10T09:18:49;98680.44;;;26.34;38.27
50226;BME280;36113;50.742;6.432;2023-06-10T09:21:21;98680.16;;;26.42;37.73
50226;BME280;36113;50.742;6.432;2023-06-10T09:23:47;98693.38;;;26.15;38.80
50226;BME280;36113;50.742;6.432;2023-06-10T09:26:12;98685.84;;;25.63;40.27
50226;BME280;36113;50.742;6.432;2023-06-10T09:28:38;98654.22;;;25.48;40.23
50226;BME280;36113;50.742;6.432;2023-06-10T09:31:06;98688.56;;;25.59;39.28
50226;BME280;36113;50.742;6.432;2023-06-10T09:33:32;98684.38;;;25.42;39.96
50226;BME280;36113;50.742;6.432;2023-06-10T09:36:01;98654.91;;;25.68;39.62
50226;BME280;36113;50.742;6.432;2023-06-10T09:38:32;98677.16;;;26.25;39.78
50226;BME280;36113;50.742;6.432;2023-06-10T09:40:58;98652.09;;;26.25;39.09
50226;BME280;36113;50.742;6.432;2023-06-10T09:43:41;98645.13;;;26.45;39.23
50226;BME280;36113;50.742;6.432;2023-06-10T09:46:14;98675.59;;;26.61;38.09
50226;BME280;36113;50.742;6.432;2023-06-10T09:48:42;98633.00;;;26.27;38.34
50226;BME280;36113;50.742;6.432;2023-06-10T09:51:10;98684.31;;;26.22;38.33
50226;BME280;36113;50.742;6.432;2023-06-10T09:53:36;98666.75;;;25.88;39.42
50226;BME280;36113;50.742;6.432;2023-06-10T09:56:01;98686.38;;;26.29;38.88
50226;BME280;36113;50.742;6.432;2023-06-10T09:58:37;98667.47;;;25.85;39.00
50226;BME280;36113;50.742;6.432;2023-06-10T10:01:10;98660.44;;;25.91;39.64
50226;BME280;36113;50.742;6.432;2023-06-10T10:03:51;98690.84;;;26.37;38.70
50226;BME280;36113;50.742;6.432;2023-06-10T10:06:18;98684.56;;;26.43;38.52
50226;BME280;36113;50.742;6.432;2023-06-10T10:08:49;98698.91;;;26.83;38.38
50226;BME280;36113;50.742;6.432;2023-06-10T10:11:17;98693.91;;;26.99;37.79
50226;BME280;36113;50.742;6.432;2023-06-10T10:13:45;98664.56;;;26.72;37.93
50226;BME280;36113;50.742;6.432;2023-06-10T10:16:11;98692.59;;;26.86;38.08
50226;BME280;36113;50.742;6.432;2023-06-10T10:18:43;98705.94;;;27.07;37.75
50226;BME280;36113;50.742;6.432;2023-06-10T10:21:15;98663.66;;;26.60;37.59
50226;BME280;36113;50.742;6.432;2023-06-10T10:24:03;98681.47;;;26.90;37.77
50226;BME280;36113;50.742;6.432;2023-06-10T10:26:31;98683.41;;;27.27;37.88
50226;BME280;36113;50.742;6.432;2023-06-10T10:29:10;98695.41;;;27.34;36.53
50226;BME280;36113;50.742;6.432;2023-06-10T10:31:36;98655.53;;;26.48;36.85
50226;BME280;36113;50.742;6.432;2023-06-10T10:34:06;98659.72;;;26.65;37.09
50226;BME280;36113;50.742;6.432;2023-06-10T10:36:32;98611.81;;;26.18;38.17
50226;BME280;36113;50.742;6.432;2023-06-10T10:38:58;98669.34;;;26.71;37.60
50226;BME280;36113;50.742;6.432;2023-06-10T10:41:24;98678.34;;;26.98;37.59
50226;BME280;36113;50.742;6.432;2023-06-10T10:43:52;98675.75;;;27.20;37.05
50226;BME280;36113;50.742;6.432;2023-06-10T10:46:17;98672.06;;;27.57;36.02
50226;BME280;36113;50.742;6.432;2023-06-10T10:48:44;98673.88;;;27.31;35.29
50226;BME280;36113;50.742;6.432;2023-06-10T10:51:10;98672.56;;;27.73;35.63
50226;BME280;36113;50.742;6.432;2023-06-10T10:53:39;98669.09;;;27.91;35.69
50226;BME280;36113;50.742;6.432;2023-06-10T10:56:12;98652.38;;;28.05;35.53
50226;BME280;36113;50.742;6.432;2023-06-10T10:58:38;98662.75;;;28.04;34.48
50226;BME280;36113;50.742;6.432;2023-06-10T11:01:14;98659.94;;;27.97;35.64
50226;BME280;36113;50.742;6.432;2023-06-10T11:03:43;98639.22;;;28.05;34.91
50226;BME280;36113;50.742;6.432;2023-06-10T11:06:14;98670.97;;;28.56;33.55
50226;BME280;36113;50.742;6.432;2023-06-10T11:11:26;98654.91;;;28.35;32.99
50226;BME280;36113;50.742;6.432;2023-06-10T11:16:28;98638.22;;;28.64;32.98
50226;BME280;36113;50.742;6.432;2023-06-10T11:18:54;98605.34;;;28.14;32.53
50226;BME280;36113;50.742;6.432;2023-06-10T11:21:19;98654.97;;;28.50;33.38
50226;BME280;36113;50.742;6.432;2023-06-10T11:23:45;98659.69;;;28.35;33.71
50226;BME280;36113;50.742;6.432;2023-06-10T11:28:40;98647.38;;;28.50;33.92
50226;BME280;36113;50.742;6.432;2023-06-10T11:31:05;98662.97;;;28.62;32.11
50226;BME280;36113;50.742;6.432;2023-06-10T11:33:32;98664.38;;;28.09;33.38
50226;BME280;36113;50.742;6.432;2023-06-10T11:35:58;98648.38;;;27.95;33.66
50226;BME280;36113;50.742;6.432;2023-06-10T11:38:24;98651.53;;;27.94;32.33
50226;BME280;36113;50.742;6.432;2023-06-10T11:40:49;98638.34;;;27.87;32.89
50226;BME280;36113;50.742;6.432;2023-06-10T11:43:17;98645.28;;;28.25;33.28
50226;BME280;36113;50.742;6.432;2023-06-10T11:45:42;98608.13;;;28.18;32.96
50226;BME280;36113;50.742;6.432;2023-06-10T11:48:09;98637.78;;;28.51;32.10
50226;BME280;36113;50.742;6.432;2023-06-10T11:50:34;98595.69;;;28.04;31.97
50226;BME280;36113;50.742;6.432;2023-06-10T11:53:00;98563.16;;;27.53;32.56
50226;BME280;36113;50.742;6.432;2023-06-10T11:55:44;98621.25;;;28.06;32.39
50226;BME280;36113;50.742;6.432;2023-06-10T11:58:21;98627.75;;;28.32;32.59
50226;BME280;36113;50.742;6.432;2023-06-10T12:00:48;98629.03;;;28.71;31.14
50226;BME280;36113;50.742;6.432;2023-06-10T12:03:13;98627.47;;;28.98;30.20
50226;BME280;36113;50.742;6.432;2023-06-10T12:05:39;98629.84;;;29.03;30.10
50226;BME280;36113;50.742;6.432;2023-06-10T12:08:08;98639.44;;;29.02;30.17
50226;BME280;36113;50.742;6.432;2023-06-10T12:10:41;98631.03;;;29.42;30.35
50226;BME280;36113;50.742;6.432;2023-06-10T12:13:10;98604.59;;;29.61;30.73
50226;BME280;36113;50.742;6.432;2023-06-10T12:15:35;98632.03;;;30.12;31.12
50226;BME280;36113;50.742;6.432;2023-06-10T12:18:01;98607.94;;;30.33;31.63
50226;BME280;36113;50.742;6.432;2023-06-10T12:20:29;98629.19;;;30.30;28.46
50226;BME280;36113;50.742;6.432;2023-06-10T12:22:55;98625.88;;;29.26;29.46
50226;BME280;36113;50.742;6.432;2023-06-10T12:25:28;98613.81;;;28.54;30.34
50226;BME280;36113;50.742;6.432;2023-06-10T12:27:57;98598.47;;;27.90;31.51
50226;BME280;36113;50.742;6.432;2023-06-10T12:30:24;98621.69;;;28.12;31.10
50226;BME280;36113;50.742;6.432;2023-06-10T12:32:50;98626.97;;;28.39;30.96
50226;BME280;36113;50.742;6.432;2023-06-10T12:35:22;98607.47;;;28.82;30.73
50226;BME280;36113;50.742;6.432;2023-06-10T12:40:30;98615.38;;;29.66;29.71
50226;BME280;36113;50.742;6.432;2023-06-10T12:42:57;98588.59;;;29.76;30.31
50226;BME280;36113;50.742;6.432;2023-06-10T12:45:27;98623.72;;;29.91;28.38
50226;BME280;36113;50.742;6.432;2023-06-10T12:48:04;98616.53;;;29.86;29.65
50226;BME280;36113;50.742;6.432;2023-06-10T12:50:31;98605.88;;;29.38;29.81
50226;BME280;36113;50.742;6.432;2023-06-10T12:52:56;98607.47;;;29.25;30.43
50226;BME280;36113;50.742;6.432;2023-06-10T12:55:22;98575.06;;;29.24;29.84
50226;BME280;36113;50.742;6.432;2023-06-10T12:57:48;98605.84;;;29.42;30.28
50226;BME280;36113;50.742;6.432;2023-06-10T13:00:15;98612.66;;;29.26;30.62
50226;BME280;36113;50.742;6.432;2023-06-10T13:02:40;98600.66;;;29.40;29.38
50226;BME280;36113;50.742;6.432;2023-06-10T13:05:06;98606.63;;;29.46;27.80
50226;BME280;36113;50.742;6.432;2023-06-10T13:07:31;98575.09;;;29.13;28.68
50226;BME280;36113;50.742;6.432;2023-06-10T13:09:57;98597.78;;;29.65;28.02
50226;BME280;36113;50.742;6.432;2023-06-10T13:12:22;98578.59;;;29.57;28.20
50226;BME280;36113;50.742;6.432;2023-06-10T13:14:47;98604.66;;;29.36;28.05
50226;BME280;36113;50.742;6.432;2023-06-10T13:17:12;98583.50;;;29.17;28.10